Seven Sins — ZCOD6 — position and weather

sailwx.info

Track history (hours):
 
Tides and Currents Weather Stations Pressure Air Temp Water Temp Dewpoint Dewpoint Depression Visibility Wind Speed Wind Dir Waves Ship Positions

Seven Sins

Last reported at 2016-Jan-27 12:33 UTC. Time now 2016-Feb-09 22:33 UTC.
Position N 17°01' W 061°46'.
Warning: this ship's position is 13 days out of date.

Length 43 m; draft 3.2 m.

Type: Pleasure craft. MMSI: 319425000.

Date/timePositionNaut miles runAvg speedWind from/ knotsBaromVisibWave heightAir tempDewpointWater temp
2016-Jan-27 12:33N 17°01' W 061°46'0 0.0
2016-Jan-27 11:33N 17°01' W 061°46'0 0.0
2016-Jan-27 10:33N 17°01' W 061°46'0 0.0
2016-Jan-27 09:33N 17°01' W 061°46'0 0.0
2016-Jan-27 08:33N 17°01' W 061°46'0 0.0
2016-Jan-27 07:33N 17°01' W 061°46'0 0.0
2016-Jan-27 06:33N 17°01' W 061°46'0 0.0
2016-Jan-27 05:33N 17°01' W 061°46'0 0.0
2016-Jan-27 04:33N 17°01' W 061°46'0 0.0
2016-Jan-27 03:33N 17°01' W 061°46'0 0.0
2016-Jan-27 02:33N 17°01' W 061°46'0 0.0
2016-Jan-27 01:33N 17°01' W 061°46'0 0.0
2016-Jan-27 00:33N 17°01' W 061°46'0 0.0
2016-Jan-26 23:33N 17°01' W 061°46'0 0.0
2016-Jan-26 22:33N 17°01' W 061°46'2 1.8
2016-Jan-26 21:33N 17°00' W 061°48'8 8.1
2016-Jan-26 20:31N 17°03' W 061°56'3 3.5
2016-Jan-26 19:31N 17°05' W 061°54'0 0.0
2016-Jan-26 18:28N 17°05' W 061°54'0 0.0
2016-Jan-26 17:31N 17°05' W 061°54'0 0.0
2016-Jan-26 16:31N 17°05' W 061°54'0 0.0
2016-Jan-26 15:25N 17°05' W 061°54'0 0.0
2016-Jan-26 14:33N 17°05' W 061°54'6 5.6
2016-Jan-26 13:33N 17°09' W 061°59'9 9.3
2016-Jan-26 12:33N 17°15' W 062°06'9 9.0
2016-Jan-26 11:32N 17°21' W 062°13'  
2016-Jan-20 07:26N 18°04' W 063°05'0 0.0
2016-Jan-20 06:22N 18°04' W 063°05'0 0.0
2016-Jan-20 04:31N 18°04' W 063°05'0 0.0
2016-Jan-20 03:32N 18°04' W 063°05'0 0.0
2016-Jan-20 01:33N 18°04' W 063°05'0 0.0
2016-Jan-20 00:08N 18°04' W 063°05'  
Track history (hours):
 
Tides and Currents Weather Stations Pressure Air Temp Water Temp Dewpoint Dewpoint Depression Visibility Wind Speed Wind Dir Waves Ship Positions

Seven Sins

Last reported at 2016-Jan-27 12:33 UTC. Time now 2016-Feb-09 22:33 UTC.
Position N 17°01' W 061°46'.
Warning: this ship's position is 13 days out of date.

Length 43 m; draft 3.2 m.

Type: Pleasure craft. MMSI: 319425000.

Date/timePositionNaut miles runAvg speedWind from/ knotsBaromVisibWave heightAir tempDewpointWater temp
2016-Jan-27 12:33N 17°01' W 061°46'0 0.0
2016-Jan-27 11:33N 17°01' W 061°46'0 0.0
2016-Jan-27 10:33N 17°01' W 061°46'0 0.0
2016-Jan-27 09:33N 17°01' W 061°46'0 0.0
2016-Jan-27 08:33N 17°01' W 061°46'0 0.0
2016-Jan-27 07:33N 17°01' W 061°46'0 0.0
2016-Jan-27 06:33N 17°01' W 061°46'0 0.0
2016-Jan-27 05:33N 17°01' W 061°46'0 0.0
2016-Jan-27 04:33N 17°01' W 061°46'0 0.0
2016-Jan-27 03:33N 17°01' W 061°46'0 0.0
2016-Jan-27 02:33N 17°01' W 061°46'0 0.0
2016-Jan-27 01:33N 17°01' W 061°46'0 0.0
2016-Jan-27 00:33N 17°01' W 061°46'0 0.0
2016-Jan-26 23:33N 17°01' W 061°46'0 0.0
2016-Jan-26 22:33N 17°01' W 061°46'2 1.8
2016-Jan-26 21:33N 17°00' W 061°48'8 8.1
2016-Jan-26 20:31N 17°03' W 061°56'3 3.5
2016-Jan-26 19:31N 17°05' W 061°54'0 0.0
2016-Jan-26 18:28N 17°05' W 061°54'0 0.0
2016-Jan-26 17:31N 17°05' W 061°54'0 0.0
2016-Jan-26 16:31N 17°05' W 061°54'0 0.0
2016-Jan-26 15:25N 17°05' W 061°54'0 0.0
2016-Jan-26 14:33N 17°05' W 061°54'6 5.6
2016-Jan-26 13:33N 17°09' W 061°59'9 9.3
2016-Jan-26 12:33N 17°15' W 062°06'9 9.0
2016-Jan-26 11:32N 17°21' W 062°13'  
2016-Jan-20 07:26N 18°04' W 063°05'0 0.0
2016-Jan-20 06:22N 18°04' W 063°05'0 0.0
2016-Jan-20 04:31N 18°04' W 063°05'0 0.0
2016-Jan-20 03:32N 18°04' W 063°05'0 0.0
2016-Jan-20 01:33N 18°04' W 063°05'0 0.0
2016-Jan-20 00:08N 18°04' W 063°05'  

Dump ship's entire track history